sensor_id;sensor_type;location;lat;lon;timestamp;temperature;humidity
2010;DHT22;1008;47.404;8.502;2023-04-30T00:01:22;14.20;99.90
2010;DHT22;1008;47.404;8.502;2023-04-30T00:03:49;14.10;99.90
2010;DHT22;1008;47.404;8.502;2023-04-30T00:06:16;14.00;99.90
2010;DHT22;1008;47.404;8.502;2023-04-30T00:08:43;14.20;99.90
2010;DHT22;1008;47.404;8.502;2023-04-30T00:11:11;14.20;99.90
2010;DHT22;1008;47.404;8.502;2023-04-30T00:13:38;14.10;99.90
2010;DHT22;1008;47.404;8.502;2023-04-30T00:16:04;13.90;99.90
2010;DHT22;1008;47.404;8.502;2023-04-30T00:18:31;13.90;99.90
2010;DHT22;1008;47.404;8.502;2023-04-30T00:20:58;13.70;99.90
2010;DHT22;1008;47.404;8.502;2023-04-30T00:23:25;13.80;99.90
2010;DHT22;1008;47.404;8.502;2023-04-30T00:25:51;13.80;99.90
2010;DHT22;1008;47.404;8.502;2023-04-30T00:28:19;13.70;99.90
2010;DHT22;1008;47.404;8.502;2023-04-30T00:30:46;13.60;99.90
2010;DHT22;1008;47.404;8.502;2023-04-30T00:33:13;13.60;99.90
2010;DHT22;1008;47.404;8.502;2023-04-30T00:35:40;13.60;99.90
2010;DHT22;1008;47.404;8.502;2023-04-30T00:38:07;13.70;99.90
2010;DHT22;1008;47.404;8.502;2023-04-30T00:40:34;13.80;99.90
2010;DHT22;1008;47.404;8.502;2023-04-30T00:43:01;13.90;99.90
2010;DHT22;1008;47.404;8.502;2023-04-30T00:45:29;13.80;99.90
2010;DHT22;1008;47.404;8.502;2023-04-30T00:47:56;14.00;99.90
2010;DHT22;1008;47.404;8.502;2023-04-30T00:50:22;13.70;99.90
2010;DHT22;1008;47.404;8.502;2023-04-30T00:52:50;13.70;99.90
2010;DHT22;1008;47.404;8.502;2023-04-30T00:55:17;13.60;99.90
2010;DHT22;1008;47.404;8.502;2023-04-30T00:57:44;13.50;99.90
2010;DHT22;1008;47.404;8.502;2023-04-30T01:00:12;13.50;99.90
2010;DHT22;1008;47.404;8.502;2023-04-30T01:02:40;13.50;99.90
2010;DHT22;1008;47.404;8.502;2023-04-30T01:05:07;13.60;99.90
2010;DHT22;1008;47.404;8.502;2023-04-30T01:07:35;13.70;99.90
2010;DHT22;1008;47.404;8.502;2023-04-30T01:10:03;13.60;99.90
2010;DHT22;1008;47.404;8.502;2023-04-30T01:12:37;13.40;99.90
2010;DHT22;1008;47.404;8.502;2023-04-30T01:15:08;13.40;99.90
2010;DHT22;1008;47.404;8.502;2023-04-30T01:17:47;13.40;99.90
2010;DHT22;1008;47.404;8.502;2023-04-30T01:20:18;13.50;99.90
2010;DHT22;1008;47.404;8.502;2023-04-30T01:22:49;13.50;99.90
2010;DHT22;1008;47.404;8.502;2023-04-30T01:25:41;13.60;99.90
2010;DHT22;1008;47.404;8.502;2023-04-30T01:28:14;13.50;99.90
2010;DHT22;1008;47.404;8.502;2023-04-30T01:30:42;13.40;99.90
2010;DHT22;1008;47.404;8.502;2023-04-30T01:33:10;13.40;99.90
2010;DHT22;1008;47.404;8.502;2023-04-30T01:35:57;13.50;99.90
2010;DHT22;1008;47.404;8.502;2023-04-30T01:38:40;13.30;99.90
2010;DHT22;1008;47.404;8.502;2023-04-30T01:41:19;13.40;99.90
2010;DHT22;1008;47.404;8.502;2023-04-30T01:43:57;13.40;99.90
2010;DHT22;1008;47.404;8.502;2023-04-30T01:46:29;13.40;99.90
2010;DHT22;1008;47.404;8.502;2023-04-30T01:49:05;13.50;99.90
2010;DHT22;1008;47.404;8.502;2023-04-30T01:51:39;13.50;99.90
2010;DHT22;1008;47.404;8.502;2023-04-30T01:54:11;13.30;99.90
2010;DHT22;1008;47.404;8.502;2023-04-30T01:56:48;13.20;99.90
2010;DHT22;1008;47.404;8.502;2023-04-30T01:59:20;13.30;99.90
2010;DHT22;1008;47.404;8.502;2023-04-30T02:01:47;13.30;99.90
2010;DHT22;1008;47.404;8.502;2023-04-30T02:04:14;13.40;99.90
2010;DHT22;1008;47.404;8.502;2023-04-30T02:06:40;13.40;99.90
2010;DHT22;1008;47.404;8.502;2023-04-30T02:09:07;13.30;99.90
2010;DHT22;1008;47.404;8.502;2023-04-30T02:11:35;13.40;99.90
2010;DHT22;1008;47.404;8.502;2023-04-30T02:14:01;13.30;99.90
2010;DHT22;1008;47.404;8.502;2023-04-30T02:16:29;13.30;99.90
2010;DHT22;1008;47.404;8.502;2023-04-30T02:18:56;13.40;99.90
2010;DHT22;1008;47.404;8.502;2023-04-30T02:21:23;13.30;99.90
2010;DHT22;1008;47.404;8.502;2023-04-30T02:23:50;13.20;99.90
2010;DHT22;1008;47.404;8.502;2023-04-30T02:26:16;13.30;99.90
2010;DHT22;1008;47.404;8.502;2023-04-30T02:28:43;13.30;99.90
2010;DHT22;1008;47.404;8.502;2023-04-30T02:31:10;13.20;99.90
2010;DHT22;1008;47.404;8.502;2023-04-30T02:33:38;13.20;99.90
2010;DHT22;1008;47.404;8.502;2023-04-30T02:36:05;13.10;99.90
2010;DHT22;1008;47.404;8.502;2023-04-30T02:38:32;13.10;99.90
2010;DHT22;1008;47.404;8.502;2023-04-30T02:40:59;13.10;99.90
2010;DHT22;1008;47.404;8.502;2023-04-30T02:43:26;13.20;99.90
2010;DHT22;1008;47.404;8.502;2023-04-30T02:45:53;13.00;99.90
2010;DHT22;1008;47.404;8.502;2023-04-30T02:48:20;13.20;99.90
2010;DHT22;1008;47.404;8.502;2023-04-30T02:50:48;13.20;99.90
2010;DHT22;1008;47.404;8.502;2023-04-30T02:53:15;13.30;99.90
2010;DHT22;1008;47.404;8.502;2023-04-30T02:55:41;13.20;99.90
2010;DHT22;1008;47.404;8.502;2023-04-30T02:58:08;13.10;99.90
2010;DHT22;1008;47.404;8.502;2023-04-30T03:00:35;13.20;99.90
2010;DHT22;1008;47.404;8.502;2023-04-30T03:03:02;13.30;99.90
2010;DHT22;1008;47.404;8.502;2023-04-30T03:05:29;13.30;99.90
2010;DHT22;1008;47.404;8.502;2023-04-30T03:07:57;13.20;99.90
2010;DHT22;1008;47.404;8.502;2023-04-30T03:10:24;13.30;99.90
2010;DHT22;1008;47.404;8.502;2023-04-30T03:12:50;13.30;99.90
2010;DHT22;1008;47.404;8.502;2023-04-30T03:15:18;13.40;99.90
2010;DHT22;1008;47.404;8.502;2023-04-30T03:17:45;13.40;99.90
2010;DHT22;1008;47.404;8.502;2023-04-30T03:20:12;13.40;99.90
2010;DHT22;1008;47.404;8.502;2023-04-30T03:22:39;13.50;99.90
2010;DHT22;1008;47.404;8.502;2023-04-30T03:25:08;13.40;99.90
2010;DHT22;1008;47.404;8.502;2023-04-30T03:27:35;13.50;99.90
2010;DHT22;1008;47.404;8.502;2023-04-30T03:30:02;13.50;99.90
2010;DHT22;1008;47.404;8.502;2023-04-30T03:32:29;13.50;99.90
2010;DHT22;1008;47.404;8.502;2023-04-30T03:34:55;13.60;99.90
2010;DHT22;1008;47.404;8.502;2023-04-30T03:37:22;13.40;99.90
2010;DHT22;1008;47.404;8.502;2023-04-30T03:39:49;13.40;99.90
2010;DHT22;1008;47.404;8.502;2023-04-30T03:42:17;13.30;99.90
2010;DHT22;1008;47.404;8.502;2023-04-30T03:44:44;13.50;99.90
2010;DHT22;1008;47.404;8.502;2023-04-30T03:47:10;13.20;99.90
2010;DHT22;1008;47.404;8.502;2023-04-30T03:49:37;13.30;99.90
2010;DHT22;1008;47.404;8.502;2023-04-30T03:52:04;13.10;99.90
2010;DHT22;1008;47.404;8.502;2023-04-30T03:54:31;13.30;99.90
2010;DHT22;1008;47.404;8.502;2023-04-30T03:56:59;13.30;99.90
2010;DHT22;1008;47.404;8.502;2023-04-30T03:59:29;13.30;99.90
2010;DHT22;1008;47.404;8.502;2023-04-30T04:01:56;13.30;99.90
2010;DHT22;1008;47.404;8.502;2023-04-30T04:04:23;13.50;99.90
2010;DHT22;1008;47.404;8.502;2023-04-30T04:06:49;13.40;99.90
2010;DHT22;1008;47.404;8.502;2023-04-30T04:09:16;13.40;99.90
2010;DHT22;1008;47.404;8.502;2023-04-30T04:11:43;13.40;99.90
2010;DHT22;1008;47.404;8.502;2023-04-30T04:14:10;13.60;99.90
2010;DHT22;1008;47.404;8.502;2023-04-30T04:16:38;13.50;99.90
2010;DHT22;1008;47.404;8.502;2023-04-30T04:19:04;13.40;99.90
2010;DHT22;1008;47.404;8.502;2023-04-30T04:21:31;13.30;99.90
2010;DHT22;1008;47.404;8.502;2023-04-30T04:23:58;13.40;99.90
2010;DHT22;1008;47.404;8.502;2023-04-30T04:26:27;13.40;99.90
2010;DHT22;1008;47.404;8.502;2023-04-30T04:28:54;13.40;99.90
2010;DHT22;1008;47.404;8.502;2023-04-30T04:31:21;13.40;99.90
2010;DHT22;1008;47.404;8.502;2023-04-30T04:33:49;13.30;99.90
2010;DHT22;1008;47.404;8.502;2023-04-30T04:36:22;13.20;99.90
2010;DHT22;1008;47.404;8.502;2023-04-30T04:38:49;13.20;99.90
2010;DHT22;1008;47.404;8.502;2023-04-30T04:41:16;13.10;99.90
2010;DHT22;1008;47.404;8.502;2023-04-30T04:43:43;13.10;99.90
2010;DHT22;1008;47.404;8.502;2023-04-30T04:46:10;13.10;99.90
2010;DHT22;1008;47.404;8.502;2023-04-30T04:48:37;13.20;99.90
2010;DHT22;1008;47.404;8.502;2023-04-30T04:51:05;13.10;99.90
2010;DHT22;1008;47.404;8.502;2023-04-30T04:53:32;13.20;99.90
2010;DHT22;1008;47.404;8.502;2023-04-30T04:55:58;13.20;99.90
2010;DHT22;1008;47.404;8.502;2023-04-30T04:58:25;13.10;99.90
2010;DHT22;1008;47.404;8.502;2023-04-30T05:00:52;13.20;99.90
2010;DHT22;1008;47.404;8.502;2023-04-30T05:03:19;13.10;99.90
2010;DHT22;1008;47.404;8.502;2023-04-30T05:05:46;13.10;99.90
2010;DHT22;1008;47.404;8.502;2023-04-30T05:08:14;13.20;99.90
2010;DHT22;1008;47.404;8.502;2023-04-30T05:10:41;13.20;99.90
2010;DHT22;1008;47.404;8.502;2023-04-30T05:13:07;13.20;99.90
2010;DHT22;1008;47.404;8.502;2023-04-30T05:15:34;13.10;99.90
2010;DHT22;1008;47.404;8.502;2023-04-30T05:18:01;13.20;99.90
2010;DHT22;1008;47.404;8.502;2023-04-30T05:20:27;13.20;99.90
2010;DHT22;1008;47.404;8.502;2023-04-30T05:22:54;13.30;99.90
2010;DHT22;1008;47.404;8.502;2023-04-30T05:25:22;13.30;99.90
2010;DHT22;1008;47.404;8.502;2023-04-30T05:27:50;13.40;99.90
2010;DHT22;1008;47.404;8.502;2023-04-30T05:30:17;13.20;99.90
2010;DHT22;1008;47.404;8.502;2023-04-30T05:32:44;13.30;99.90
2010;DHT22;1008;47.404;8.502;2023-04-30T05:35:15;13.30;99.90
2010;DHT22;1008;47.404;8.502;2023-04-30T05:37:41;13.40;99.90
2010;DHT22;1008;47.404;8.502;2023-04-30T05:40:09;13.40;99.90
2010;DHT22;1008;47.404;8.502;2023-04-30T05:42:37;13.30;99.90
2010;DHT22;1008;47.404;8.502;2023-04-30T05:45:06;13.40;99.90
2010;DHT22;1008;47.404;8.502;2023-04-30T05:47:33;13.30;99.90
2010;DHT22;1008;47.404;8.502;2023-04-30T05:50:00;13.40;99.90
2010;DHT22;1008;47.404;8.502;2023-04-30T05:52:26;13.40;99.90
2010;DHT22;1008;47.404;8.502;2023-04-30T05:54:53;13.40;99.90
2010;DHT22;1008;47.404;8.502;2023-04-30T05:57:20;13.40;99.90
2010;DHT22;1008;47.404;8.502;2023-04-30T05:59:48;13.50;99.90
2010;DHT22;1008;47.404;8.502;2023-04-30T06:02:15;13.60;99.90
2010;DHT22;1008;47.404;8.502;2023-04-30T06:04:42;13.60;99.90
2010;DHT22;1008;47.404;8.502;2023-04-30T06:07:08;13.60;99.90
2010;DHT22;1008;47.404;8.502;2023-04-30T06:09:35;13.60;99.90
2010;DHT22;1008;47.404;8.502;2023-04-30T06:12:02;13.50;99.90
2010;DHT22;1008;47.404;8.502;2023-04-30T06:14:29;13.60;99.90
2010;DHT22;1008;47.404;8.502;2023-04-30T06:16:57;13.60;99.90
2010;DHT22;1008;47.404;8.502;2023-04-30T06:19:24;13.50;99.90
2010;DHT22;1008;47.404;8.502;2023-04-30T06:21:51;13.70;99.90
2010;DHT22;1008;47.404;8.502;2023-04-30T06:24:17;13.90;99.90
2010;DHT22;1008;47.404;8.502;2023-04-30T06:26:44;13.90;99.90
2010;DHT22;1008;47.404;8.502;2023-04-30T06:29:11;13.70;99.90
2010;DHT22;1008;47.404;8.502;2023-04-30T06:31:38;13.70;99.90
2010;DHT22;1008;47.404;8.502;2023-04-30T06:34:06;13.80;99.90
2010;DHT22;1008;47.404;8.502;2023-04-30T06:36:32;13.80;99.90
2010;DHT22;1008;47.404;8.502;2023-04-30T06:39:01;13.90;99.90
2010;DHT22;1008;47.404;8.502;2023-04-30T06:41:29;13.90;99.90
2010;DHT22;1008;47.404;8.502;2023-04-30T06:43:56;13.90;99.90
2010;DHT22;1008;47.404;8.502;2023-04-30T06:46:23;13.80;99.90
2010;DHT22;1008;47.404;8.502;2023-04-30T06:48:50;13.80;99.90
2010;DHT22;1008;47.404;8.502;2023-04-30T06:51:18;13.80;99.90
2010;DHT22;1008;47.404;8.502;2023-04-30T06:53:44;13.90;99.90
2010;DHT22;1008;47.404;8.502;2023-04-30T06:56:11;13.80;99.90
2010;DHT22;1008;47.404;8.502;2023-04-30T06:58:38;13.80;99.90
2010;DHT22;1008;47.404;8.502;2023-04-30T07:01:04;13.70;99.90
2010;DHT22;1008;47.404;8.502;2023-04-30T07:03:31;13.80;99.90
2010;DHT22;1008;47.404;8.502;2023-04-30T07:05:58;13.80;99.90
2010;DHT22;1008;47.404;8.502;2023-04-30T07:08:26;13.70;99.90
2010;DHT22;1008;47.404;8.502;2023-04-30T07:10:53;13.80;99.90
2010;DHT22;1008;47.404;8.502;2023-04-30T07:13:20;13.80;99.90
2010;DHT22;1008;47.404;8.502;2023-04-30T07:15:47;13.90;99.90
2010;DHT22;1008;47.404;8.502;2023-04-30T07:18:14;14.00;99.90
2010;DHT22;1008;47.404;8.502;2023-04-30T07:20:40;14.10;99.90
2010;DHT22;1008;47.404;8.502;2023-04-30T07:23:07;14.30;99.90
2010;DHT22;1008;47.404;8.502;2023-04-30T07:25:35;14.40;99.90
2010;DHT22;1008;47.404;8.502;2023-04-30T07:28:02;14.50;99.90
2010;DHT22;1008;47.404;8.502;2023-04-30T07:30:29;14.60;99.90
2010;DHT22;1008;47.404;8.502;2023-04-30T07:32:55;14.60;99.90
2010;DHT22;1008;47.404;8.502;2023-04-30T07:35:22;14.70;99.90
2010;DHT22;1008;47.404;8.502;2023-04-30T07:37:49;14.70;99.90
2010;DHT22;1008;47.404;8.502;2023-04-30T07:40:16;14.80;99.90
2010;DHT22;1008;47.404;8.502;2023-04-30T07:42:44;14.70;99.90
2010;DHT22;1008;47.404;8.502;2023-04-30T07:45:10;14.60;99.90
2010;DHT22;1008;47.404;8.502;2023-04-30T07:47:37;14.50;99.90
2010;DHT22;1008;47.404;8.502;2023-04-30T07:50:05;14.70;99.90
2010;DHT22;1008;47.404;8.502;2023-04-30T07:52:32;14.80;99.90
2010;DHT22;1008;47.404;8.502;2023-04-30T07:54:59;15.00;99.90
2010;DHT22;1008;47.404;8.502;2023-04-30T07:57:26;15.10;99.90
2010;DHT22;1008;47.404;8.502;2023-04-30T07:59:54;15.20;99.90
2010;DHT22;1008;47.404;8.502;2023-04-30T08:02:21;15.00;99.90
2010;DHT22;1008;47.404;8.502;2023-04-30T08:04:48;15.10;99.90
2010;DHT22;1008;47.404;8.502;2023-04-30T08:07:15;15.20;99.90
2010;DHT22;1008;47.404;8.502;2023-04-30T08:09:42;15.30;99.90
2010;DHT22;1008;47.404;8.502;2023-04-30T08:12:09;15.30;99.90
2010;DHT22;1008;47.404;8.502;2023-04-30T08:14:36;15.40;99.90
2010;DHT22;1008;47.404;8.502;2023-04-30T08:17:04;15.50;99.90
2010;DHT22;1008;47.404;8.502;2023-04-30T08:19:30;15.60;99.90
2010;DHT22;1008;47.404;8.502;2023-04-30T08:21:57;15.50;99.90
2010;DHT22;1008;47.404;8.502;2023-04-30T08:24:25;15.60;99.90
2010;DHT22;1008;47.404;8.502;2023-04-30T08:26:52;15.60;99.90
2010;DHT22;1008;47.404;8.502;2023-04-30T08:29:19;15.70;99.90
2010;DHT22;1008;47.404;8.502;2023-04-30T08:31:45;15.70;99.90
2010;DHT22;1008;47.404;8.502;2023-04-30T08:34:13;15.80;99.90
2010;DHT22;1008;47.404;8.502;2023-04-30T08:36:40;16.00;99.90
2010;DHT22;1008;47.404;8.502;2023-04-30T08:39:07;15.90;99.90
2010;DHT22;1008;47.404;8.502;2023-04-30T08:41:35;16.10;99.90
2010;DHT22;1008;47.404;8.502;2023-04-30T08:44:02;16.00;99.90
2010;DHT22;1008;47.404;8.502;2023-04-30T08:46:31;16.10;99.90
2010;DHT22;1008;47.404;8.502;2023-04-30T08:48:58;16.30;99.90
2010;DHT22;1008;47.404;8.502;2023-04-30T08:51:27;16.20;99.90
2010;DHT22;1008;47.404;8.502;2023-04-30T08:53:56;16.30;99.90
2010;DHT22;1008;47.404;8.502;2023-04-30T08:56:23;16.00;99.90
2010;DHT22;1008;47.404;8.502;2023-04-30T08:58:50;16.10;99.90
2010;DHT22;1008;47.404;8.502;2023-04-30T09:01:17;16.30;99.90
2010;DHT22;1008;47.404;8.502;2023-04-30T09:03:43;16.30;99.90
2010;DHT22;1008;47.404;8.502;2023-04-30T09:06:14;16.20;99.90
2010;DHT22;1008;47.404;8.502;2023-04-30T09:08:44;16.30;99.90
2010;DHT22;1008;47.404;8.502;2023-04-30T09:11:21;16.20;99.90
2010;DHT22;1008;47.404;8.502;2023-04-30T09:13:49;16.10;99.90
2010;DHT22;1008;47.404;8.502;2023-04-30T09:16:17;16.00;99.90
2010;DHT22;1008;47.404;8.502;2023-04-30T09:18:43;15.80;99.90
2010;DHT22;1008;47.404;8.502;2023-04-30T09:21:10;15.70;99.90
2010;DHT22;1008;47.404;8.502;2023-04-30T09:23:54;15.70;99.90
2010;DHT22;1008;47.404;8.502;2023-04-30T09:26:26;15.70;99.90
2010;DHT22;1008;47.404;8.502;2023-04-30T09:28:54;15.80;99.90
2010;DHT22;1008;47.404;8.502;2023-04-30T09:31:22;15.80;99.90
2010;DHT22;1008;47.404;8.502;2023-04-30T09:33:50;16.00;99.90
2010;DHT22;1008;47.404;8.502;2023-04-30T09:36:18;16.10;99.90
2010;DHT22;1008;47.404;8.502;2023-04-30T09:38:45;16.10;99.90
2010;DHT22;1008;47.404;8.502;2023-04-30T09:41:23;16.20;99.90
2010;DHT22;1008;47.404;8.502;2023-04-30T09:43:50;16.30;99.90
2010;DHT22;1008;47.404;8.502;2023-04-30T09:46:18;16.40;99.90
2010;DHT22;1008;47.404;8.502;2023-04-30T09:48:46;16.50;99.90
2010;DHT22;1008;47.404;8.502;2023-04-30T09:51:13;16.40;99.90
2010;DHT22;1008;47.404;8.502;2023-04-30T09:53:41;16.30;99.90
2010;DHT22;1008;47.404;8.502;2023-04-30T09:56:11;16.20;99.90
2010;DHT22;1008;47.404;8.502;2023-04-30T09:58:43;16.40;99.90
2010;DHT22;1008;47.404;8.502;2023-04-30T10:01:17;16.30;99.90
2010;DHT22;1008;47.404;8.502;2023-04-30T10:03:44;16.40;99.90
2010;DHT22;1008;47.404;8.502;2023-04-30T10:06:13;16.60;99.90
2010;DHT22;1008;47.404;8.502;2023-04-30T10:08:42;16.90;99.90
2010;DHT22;1008;47.404;8.502;2023-04-30T10:11:13;17.10;99.90
2010;DHT22;1008;47.404;8.502;2023-04-30T10:13:48;17.20;99.90
2010;DHT22;1008;47.404;8.502;2023-04-30T10:16:24;17.20;99.90
2010;DHT22;1008;47.404;8.502;2023-04-30T10:18:53;17.10;99.90
2010;DHT22;1008;47.404;8.502;2023-04-30T10:21:22;17.20;99.90
2010;DHT22;1008;47.404;8.502;2023-04-30T10:23:52;17.10;99.90
2010;DHT22;1008;47.404;8.502;2023-04-30T10:26:19;17.20;99.90
2010;DHT22;1008;47.404;8.502;2023-04-30T10:28:49;17.30;99.90
2010;DHT22;1008;47.404;8.502;2023-04-30T10:31:16;17.50;99.90
2010;DHT22;1008;47.404;8.502;2023-04-30T10:33:48;18.00;99.90
2010;DHT22;1008;47.404;8.502;2023-04-30T10:36:22;17.80;99.90
2010;DHT22;1008;47.404;8.502;2023-04-30T10:38:50;17.70;99.90
2010;DHT22;1008;47.404;8.502;2023-04-30T10:41:19;17.60;99.90
2010;DHT22;1008;47.404;8.502;2023-04-30T10:43:47;17.60;99.90
2010;DHT22;1008;47.404;8.502;2023-04-30T10:46:21;17.60;99.90
2010;DHT22;1008;47.404;8.502;2023-04-30T10:48:48;17.70;99.90
2010;DHT22;1008;47.404;8.502;2023-04-30T10:51:16;17.80;99.90
2010;DHT22;1008;47.404;8.502;2023-04-30T10:53:43;17.80;99.90
2010;DHT22;1008;47.404;8.502;2023-04-30T10:56:10;18.40;99.90
2010;DHT22;1008;47.404;8.502;2023-04-30T10:58:38;18.50;99.90
2010;DHT22;1008;47.404;8.502;2023-04-30T11:01:08;18.80;99.90
2010;DHT22;1008;47.404;8.502;2023-04-30T11:03:36;18.60;99.90
2010;DHT22;1008;47.404;8.502;2023-04-30T11:06:10;18.60;99.90
2010;DHT22;1008;47.404;8.502;2023-04-30T11:08:39;18.50;99.90
2010;DHT22;1008;47.404;8.502;2023-04-30T11:11:11;18.60;99.90
2010;DHT22;1008;47.404;8.502;2023-04-30T11:13:40;18.50;99.90
2010;DHT22;1008;47.404;8.502;2023-04-30T11:16:11;18.60;99.90
2010;DHT22;1008;47.404;8.502;2023-04-30T11:18:43;18.90;99.90
2010;DHT22;1008;47.404;8.502;2023-04-30T11:21:10;19.60;99.90
2010;DHT22;1008;47.404;8.502;2023-04-30T11:23:40;19.80;99.90
2010;DHT22;1008;47.404;8.502;2023-04-30T11:26:09;20.00;99.90
2010;DHT22;1008;47.404;8.502;2023-04-30T11:28:36;20.10;99.90
2010;DHT22;1008;47.404;8.502;2023-04-30T11:31:04;19.80;99.90
2010;DHT22;1008;47.404;8.502;2023-04-30T11:33:33;19.10;99.90
2010;DHT22;1008;47.404;8.502;2023-04-30T11:36:00;19.10;99.90
2010;DHT22;1008;47.404;8.502;2023-04-30T11:38:29;19.00;99.90
2010;DHT22;1008;47.404;8.502;2023-04-30T11:40:56;18.90;99.90
2010;DHT22;1008;47.404;8.502;2023-04-30T11:43:24;18.80;99.90
2010;DHT22;1008;47.404;8.502;2023-04-30T11:48:45;19.00;99.90
2010;DHT22;1008;47.404;8.502;2023-04-30T11:51:16;19.10;99.90
2010;DHT22;1008;47.404;8.502;2023-04-30T11:53:45;18.60;99.90
2010;DHT22;1008;47.404;8.502;2023-04-30T11:56:11;18.60;99.90
2010;DHT22;1008;47.404;8.502;2023-04-30T11:58:38;18.40;99.90
2010;DHT22;1008;47.404;8.502;2023-04-30T12:01:06;18.50;99.90
2010;DHT22;1008;47.404;8.502;2023-04-30T12:03:39;18.40;99.90
2010;DHT22;1008;47.404;8.502;2023-04-30T12:06:10;18.40;99.90
2010;DHT22;1008;47.404;8.502;2023-04-30T12:08:37;18.70;99.90
2010;DHT22;1008;47.404;8.502;2023-04-30T12:11:18;18.50;99.90
2010;DHT22;1008;47.404;8.502;2023-04-30T12:13:49;18.60;99.90
2010;DHT22;1008;47.404;8.502;2023-04-30T12:16:16;18.20;99.90
2010;DHT22;1008;47.404;8.502;2023-04-30T12:18:44;18.20;99.90
2010;DHT22;1008;47.404;8.502;2023-04-30T12:21:12;18.30;99.90
2010;DHT22;1008;47.404;8.502;2023-04-30T12:23:40;18.30;99.90
2010;DHT22;1008;47.404;8.502;2023-04-30T12:26:07;18.30;99.90
2010;DHT22;1008;47.404;8.502;2023-04-30T12:28:34;18.30;99.90
2010;DHT22;1008;47.404;8.502;2023-04-30T12:31:00;18.40;99.90
2010;DHT22;1008;47.404;8.502;2023-04-30T12:33:31;18.40;99.90
2010;DHT22;1008;47.404;8.502;2023-04-30T12:35:57;18.30;99.90
2010;DHT22;1008;47.404;8.502;2023-04-30T12:38:25;18.30;99.90
2010;DHT22;1008;47.404;8.502;2023-04-30T12:40:52;18.30;99.90
2010;DHT22;1008;47.404;8.502;2023-04-30T12:43:19;18.30;99.90
2010;DHT22;1008;47.404;8.502;2023-04-30T12:45:48;18.30;99.90
2010;DHT22;1008;47.404;8.502;2023-04-30T12:48:17;18.20;99.90
2010;DHT22;1008;47.404;8.502;2023-04-30T12:50:49;18.20;99.90
2010;DHT22;1008;47.404;8.502;2023-04-30T12:53:16;18.00;99.90
2010;DHT22;1008;47.404;8.502;2023-04-30T12:56:08;18.10;99.90
2010;DHT22;1008;47.404;8.502;2023-04-30T12:58:35;17.90;99.90
2010;DHT22;1008;47.404;8.502;2023-04-30T13:01:02;18.20;99.90
2010;DHT22;1008;47.404;8.502;2023-04-30T13:03:28;18.00;99.90
2010;DHT22;1008;47.404;8.502;2023-04-30T13:05:55;18.20;99.90
2010;DHT22;1008;47.404;8.502;2023-04-30T13:08:23;18.10;99.90
2010;DHT22;1008;47.404;8.502;2023-04-30T13:10:51;18.00;99.90
2010;DHT22;1008;47.404;8.502;2023-04-30T13:13:17;18.00;99.90
2010;DHT22;1008;47.404;8.502;2023-04-30T13:15:45;18.00;99.90
2010;DHT22;1008;47.404;8.502;2023-04-30T13:18:12;17.90;99.90
2010;DHT22;1008;47.404;8.502;2023-04-30T13:20:40;17.90;99.90
2010;DHT22;1008;47.404;8.502;2023-04-30T13:23:08;18.00;99.90
2010;DHT22;1008;47.404;8.502;2023-04-30T13:25:37;18.00;99.90
2010;DHT22;1008;47.404;8.502;2023-04-30T13:28:05;18.00;99.90
2010;DHT22;1008;47.404;8.502;2023-04-30T13:30:32;18.10;99.90
2010;DHT22;1008;47.404;8.502;2023-04-30T13:32:59;18.20;99.90
2010;DHT22;1008;47.404;8.502;2023-04-30T13:35:26;18.30;99.90
2010;DHT22;1008;47.404;8.502;2023-04-30T13:37:53;18.70;99.90
2010;DHT22;1008;47.404;8.502;2023-04-30T13:40:20;18.40;99.90
2010;DHT22;1008;47.404;8.502;2023-04-30T13:42:47;18.50;99.90
2010;DHT22;1008;47.404;8.502;2023-04-30T13:45:15;18.40;99.90
2010;DHT22;1008;47.404;8.502;2023-04-30T13:47:42;18.30;99.90
2010;DHT22;1008;47.404;8.502;2023-04-30T13:50:09;18.20;99.90
2010;DHT22;1008;47.404;8.502;2023-04-30T13:52:36;18.20;99.90
2010;DHT22;1008;47.404;8.502;2023-04-30T13:55:04;18.00;99.90
2010;DHT22;1008;47.404;8.502;2023-04-30T13:57:31;17.90;99.90
2010;DHT22;1008;47.404;8.502;2023-04-30T13:59:58;17.80;99.90
2010;DHT22;1008;47.404;8.502;2023-04-30T14:02:26;17.80;99.90
2010;DHT22;1008;47.404;8.502;2023-04-30T14:04:53;17.90;99.90
2010;DHT22;1008;47.404;8.502;2023-04-30T14:07:20;18.00;99.90
2010;DHT22;1008;47.404;8.502;2023-04-30T14:09:47;18.00;99.90
2010;DHT22;1008;47.404;8.502;2023-04-30T14:12:14;17.80;99.90
2010;DHT22;1008;47.404;8.502;2023-04-30T14:14:41;17.80;99.90
2010;DHT22;1008;47.404;8.502;2023-04-30T14:17:08;17.90;99.90
2010;DHT22;1008;47.404;8.502;2023-04-30T14:19:36;17.80;99.90
2010;DHT22;1008;47.404;8.502;2023-04-30T14:22:02;17.90;99.90
2010;DHT22;1008;47.404;8.502;2023-04-30T14:24:30;17.90;99.90
2010;DHT22;1008;47.404;8.502;2023-04-30T14:26:57;18.00;99.90
2010;DHT22;1008;47.404;8.502;2023-04-30T14:29:24;18.20;99.90
2010;DHT22;1008;47.404;8.502;2023-04-30T14:31:51;17.90;99.90
2010;DHT22;1008;47.404;8.502;2023-04-30T14:34:18;17.80;99.90
2010;DHT22;1008;47.404;8.502;2023-04-30T14:36:46;18.00;99.90
2010;DHT22;1008;47.404;8.502;2023-04-30T14:39:13;17.90;99.90
2010;DHT22;1008;47.404;8.502;2023-04-30T14:41:40;17.70;99.90
2010;DHT22;1008;47.404;8.502;2023-04-30T14:44:06;17.70;99.90
2010;DHT22;1008;47.404;8.502;2023-04-30T14:46:35;17.80;99.90
2010;DHT22;1008;47.404;8.502;2023-04-30T14:49:01;18.00;99.90
2010;DHT22;1008;47.404;8.502;2023-04-30T14:51:28;17.80;99.90
2010;DHT22;1008;47.404;8.502;2023-04-30T14:53:58;17.70;99.90
2010;DHT22;1008;47.404;8.502;2023-04-30T14:56:24;17.60;99.90
2010;DHT22;1008;47.404;8.502;2023-04-30T14:58:51;17.60;99.90
2010;DHT22;1008;47.404;8.502;2023-04-30T15:01:18;17.60;99.90
2010;DHT22;1008;47.404;8.502;2023-04-30T15:03:45;17.50;99.90
2010;DHT22;1008;47.404;8.502;2023-04-30T15:06:12;17.50;99.90
2010;DHT22;1008;47.404;8.502;2023-04-30T15:08:38;17.50;99.90
2010;DHT22;1008;47.404;8.502;2023-04-30T15:11:07;17.50;99.90
2010;DHT22;1008;47.404;8.502;2023-04-30T15:13:34;17.50;99.90
2010;DHT22;1008;47.404;8.502;2023-04-30T15:16:01;17.60;99.90
2010;DHT22;1008;47.404;8.502;2023-04-30T15:18:28;17.50;99.90
2010;DHT22;1008;47.404;8.502;2023-04-30T15:20:55;17.60;99.90
2010;DHT22;1008;47.404;8.502;2023-04-30T15:23:21;17.60;99.90
2010;DHT22;1008;47.404;8.502;2023-04-30T15:25:48;18.00;99.90
2010;DHT22;1008;47.404;8.502;2023-04-30T15:28:17;17.70;99.90
2010;DHT22;1008;47.404;8.502;2023-04-30T15:30:45;17.80;99.90
2010;DHT22;1008;47.404;8.502;2023-04-30T15:33:11;17.60;99.90
2010;DHT22;1008;47.404;8.502;2023-04-30T15:35:38;17.70;99.90
2010;DHT22;1008;47.404;8.502;2023-04-30T15:38:06;17.60;99.90
2010;DHT22;1008;47.404;8.502;2023-04-30T15:40:33;17.80;99.90
2010;DHT22;1008;47.404;8.502;2023-04-30T15:43:01;17.80;99.90
2010;DHT22;1008;47.404;8.502;2023-04-30T15:45:29;17.70;99.90
2010;DHT22;1008;47.404;8.502;2023-04-30T15:47:56;17.60;99.90
2010;DHT22;1008;47.404;8.502;2023-04-30T15:50:24;17.40;99.90
2010;DHT22;1008;47.404;8.502;2023-04-30T15:52:51;17.40;99.90
2010;DHT22;1008;47.404;8.502;2023-04-30T15:55:18;17.50;99.90
2010;DHT22;1008;47.404;8.502;2023-04-30T15:57:45;17.30;99.90
2010;DHT22;1008;47.404;8.502;2023-04-30T16:00:12;17.40;99.90
2010;DHT22;1008;47.404;8.502;2023-04-30T16:02:41;17.30;99.90
2010;DHT22;1008;47.404;8.502;2023-04-30T16:05:08;17.40;99.90
2010;DHT22;1008;47.404;8.502;2023-04-30T16:07:36;17.30;99.90
2010;DHT22;1008;47.404;8.502;2023-04-30T16:10:04;17.60;99.90